White Cottage, Ohio
Current Conditions -  °F | °C
As of 1:53 AM on Friday 28 Nov 2014 (Local Time) from KZZV Reporting Station
Broken Clouds Broken Clouds  
Wind Chill: 19°   Ceiling: 2500
Heat Index: 27°   Visibility: 10mi
Dew Point: 20°   Wind: 7mph
Humidity: 75%   Direction: 270°W
Pressure: 30.3"   Gusts: NA
Location:  39.87°N, 82.1°W
Report Text: KZZV 280653Z AUTO 27006KT 10SM BKN025 BKN032 M03/M07 A3030 RMK AO2 SLP270 T10281067
Loading
Personal Weather Stations






























Interactive Weather Map New forecast layout! Learn more

10-Day Weather Forecast

Advertisements
Track Severe Weather on mobile